Chapman, Kansas
Current Conditions -  °F | °C
As of 5:58 AM on Wednesday 28 Jan 2015 (Local Time) from KFRI Reporting Station
Clear Clear  
Wind Chill: 37°   Ceiling: Unl
Heat Index: 37°   Visibility: 10mi
Dew Point: 34°   Wind: 2mph
Humidity: 87%   Direction: NA
Pressure: 29.88"   Gusts: NA
Location:  38.97°N, 97.02°W
Report Text: KFRI 281158Z AUTO VRB02KT 10SM CLR 03/01 A2988 RMK AO2 SLP119 T00290010 10091 20014 57012
Loading
Personal Weather Stations






























Interactive Weather Map New forecast layout! Learn more

10-Day Weather Forecast

Advertisements
Track Severe Weather on mobile